Time;durP1;ratioP1;P1;durP2;ratioP2;P2;SDS_P1;SDS_P2;PMS_P1;PMS_P2;Temp;Humidity;BMP_temperature;BMP_pressure;BME280_temperature;BME280_humidity;BME280_pressure;Samples;Min_cycle;Max_cycle;Signal;HPM_P1;HPM_P2
2023/01/13 00:02:12;;;;;;;2.67;2.47;;;;;;;;;;5090221;28;20289;-50
2023/01/13 00:04:38;;;;;;;2.53;2.33;;;;;;;;;;5090529;28;20248;-50
2023/01/13 00:07:04;;;;;;;2.90;2.70;;;;;;;;;;5090340;28;20613;-50
2023/01/13 00:09:30;;;;;;;2.70;2.50;;;;;;;;;;5090402;28;20191;-50
2023/01/13 00:11:57;;;;;;;9.47;2.90;;;;;;;;;;5090357;28;20226;-49
2023/01/13 00:14:25;;;;;;;4.43;2.83;;;;;;;;;;5090313;28;20584;-50
2023/01/13 00:16:51;;;;;;;3.83;3.50;;;;;;;;;;5090289;28;20199;-49
2023/01/13 00:19:17;;;;;;;3.80;3.50;;;;;;;;;;5090139;28;20569;-49
2023/01/13 00:21:43;;;;;;;5.03;3.30;;;;;;;;;;5090065;28;20207;-50
2023/01/13 00:24:10;;;;;;;3.00;2.80;;;;;;;;;;5089737;28;20242;-49
2023/01/13 00:26:36;;;;;;;3.30;3.00;;;;;;;;;;5090165;28;20645;-50
2023/01/13 00:29:03;;;;;;;3.30;3.00;;;;;;;;;;5090003;28;20195;-50
2023/01/13 00:31:29;;;;;;;3.50;3.20;;;;;;;;;;5089819;28;20198;-50
2023/01/13 00:33:56;;;;;;;3.47;3.17;;;;;;;;;;5090120;28;20195;-51
2023/01/13 00:36:22;;;;;;;3.57;3.27;;;;;;;;;;5089508;28;20831;-50
2023/01/13 00:38:48;;;;;;;2.97;2.77;;;;;;;;;;5090189;28;20226;-50
2023/01/13 00:41:15;;;;;;;5.70;2.87;;;;;;;;;;5089706;28;20240;-49
2023/01/13 00:43:41;;;;;;;2.80;2.60;;;;;;;;;;5089416;28;20199;-49
2023/01/13 00:46:09;;;;;;;2.87;2.67;;;;;;;;;;5088008;28;20545;-52
2023/01/13 00:48:36;;;;;;;2.70;2.50;;;;;;;;;;5088013;28;20195;-52
2023/01/13 00:51:04;;;;;;;2.53;2.33;;;;;;;;;;5089871;28;20195;-53
2023/01/13 00:53:33;;;;;;;2.53;2.33;;;;;;;;;;5089917;28;20195;-51
2023/01/13 00:55:59;;;;;;;2.63;2.40;;;;;;;;;;5089793;28;20286;-50
2023/01/13 00:58:25;;;;;;;2.87;2.23;;;;;;;;;;5089845;28;20946;-52
2023/01/13 01:00:51;;;;;;;3.93;2.60;;;;;;;;;;5089846;28;20194;-52
2023/01/13 01:03:18;;;;;;;2.37;2.17;;;;;;;;;;5089742;28;20230;-51
2023/01/13 01:05:44;;;;;;;4.00;2.17;;;;;;;;;;5089749;28;20218;-53
2023/01/13 01:08:10;;;;;;;4.33;2.60;;;;;;;;;;5089567;28;20183;-51
2023/01/13 01:10:36;;;;;;;3.53;2.00;;;;;;;;;;5089702;28;20577;-52
2023/01/13 01:13:02;;;;;;;2.47;1.77;;;;;;;;;;5089659;28;20281;-52
2023/01/13 01:15:28;;;;;;;3.80;2.30;;;;;;;;;;5089697;28;20195;-53
2023/01/13 01:17:54;;;;;;;3.00;2.10;;;;;;;;;;5089552;28;20788;-52
2023/01/13 01:20:21;;;;;;;3.33;2.00;;;;;;;;;;5089398;28;20254;-52
2023/01/13 01:22:48;;;;;;;5.07;1.90;;;;;;;;;;5089662;28;20569;-53
2023/01/13 01:25:13;;;;;;;2.37;1.80;;;;;;;;;;5089628;28;20301;-52
2023/01/13 01:27:39;;;;;;;4.17;1.80;;;;;;;;;;5089636;28;20748;-52
2023/01/13 01:30:06;;;;;;;4.37;2.03;;;;;;;;;;5089412;28;20202;-53
2023/01/13 01:32:33;;;;;;;4.10;1.73;;;;;;;;;;5089612;28;20199;-52
2023/01/13 01:34:59;;;;;;;4.60;1.77;;;;;;;;;;5089296;28;20194;-51
2023/01/13 01:37:26;;;;;;;2.70;1.90;;;;;;;;;;5089538;28;20278;-51
2023/01/13 01:39:52;;;;;;;5.73;1.70;;;;;;;;;;5089357;28;20203;-51
2023/01/13 01:45:10;;;;;;;3.10;1.77;;;;;;;;;;5089476;28;20252;-52
2023/01/13 01:47:36;;;;;;;3.33;1.60;;;;;;;;;;5089471;28;20270;-52
2023/01/13 01:50:03;;;;;;;2.77;2.00;;;;;;;;;;5089171;28;20948;-52
2023/01/13 01:52:31;;;;;;;4.27;1.80;;;;;;;;;;5089484;28;20199;-52
2023/01/13 01:55:00;;;;;;;5.30;2.20;;;;;;;;;;5090337;28;20195;-52
2023/01/13 01:57:28;;;;;;;4.87;1.90;;;;;;;;;;5092623;28;20697;-52
2023/01/13 01:59:54;;;;;;;3.07;1.47;;;;;;;;;;5092702;28;20198;-53
2023/01/13 02:02:21;;;;;;;5.60;1.70;;;;;;;;;;5092565;28;20226;-53
2023/01/13 02:04:49;;;;;;;3.77;1.80;;;;;;;;;;5092549;28;20199;-53
2023/01/13 02:07:16;;;;;;;4.13;1.93;;;;;;;;;;5092488;28;20195;-52
2023/01/13 02:09:43;;;;;;;4.80;1.83;;;;;;;;;;5092738;28;20187;-53
2023/01/13 02:12:28;;;;;;;5.87;2.10;;;;;;;;;;5092394;28;20207;-53
2023/01/13 02:14:54;;;;;;;4.33;2.10;;;;;;;;;;5092503;28;20206;-53
2023/01/13 02:17:26;;;;;;;4.03;1.93;;;;;;;;;;5092426;28;20278;-52
2023/01/13 02:20:03;;;;;;;5.83;2.00;;;;;;;;;;5092392;28;20206;-53
2023/01/13 02:22:40;;;;;;;4.40;1.53;;;;;;;;;;5092374;28;20726;-53
2023/01/13 02:25:17;;;;;;;4.10;1.80;;;;;;;;;;5092325;28;20202;-53
2023/01/13 02:27:51;;;;;;;6.13;2.07;;;;;;;;;;5092048;28;20680;-52
2023/01/13 02:33:13;;;;;;;5.13;2.00;;;;;;;;;;5092074;28;20677;-53
2023/01/13 02:35:44;;;;;;;5.43;2.07;;;;;;;;;;5091956;28;21365;-53
2023/01/13 02:38:12;;;;;;;5.33;2.00;;;;;;;;;;5091710;28;20817;-53
2023/01/13 02:40:42;;;;;;;4.80;2.10;;;;;;;;;;5092207;28;20191;-53
2023/01/13 02:46:00;;;;;;;8.23;2.43;;;;;;;;;;5092273;28;20198;-53
2023/01/13 02:48:27;;;;;;;11.23;2.63;;;;;;;;;;5091698;28;20218;-53
2023/01/13 02:50:55;;;;;;;6.90;2.63;;;;;;;;;;5091832;28;20631;-53
2023/01/13 02:53:25;;;;;;;5.27;2.30;;;;;;;;;;5091670;28;20259;-53
2023/01/13 02:55:52;;;;;;;6.53;2.17;;;;;;;;;;5091899;28;20203;-52
2023/01/13 02:58:21;;;;;;;5.70;2.30;;;;;;;;;;5091499;28;20234;-53
2023/01/13 03:00:48;;;;;;;3.67;1.90;;;;;;;;;;5091676;28;20203;-53
2023/01/13 03:03:18;;;;;;;3.67;1.93;;;;;;;;;;5091560;28;20256;-53
2023/01/13 03:05:45;;;;;;;4.40;2.10;;;;;;;;;;5091255;28;20203;-53
2023/01/13 03:08:17;;;;;;;6.23;2.10;;;;;;;;;;5091224;28;20224;-53
2023/01/13 03:10:55;;;;;;;4.70;1.90;;;;;;;;;;5091574;28;20199;-53
2023/01/13 03:13:26;;;;;;;7.87;2.37;;;;;;;;;;5091242;28;20198;-53
2023/01/13 03:15:57;;;;;;;6.63;2.00;;;;;;;;;;5091375;28;20199;-53
2023/01/13 03:18:30;;;;;;;6.00;2.13;;;;;;;;;;5091032;28;20223;-53
2023/01/13 03:20:59;;;;;;;6.67;1.93;;;;;;;;;;5091054;28;20209;-53
2023/01/13 03:23:30;;;;;;;6.47;2.17;;;;;;;;;;5091042;28;20252;-54
2023/01/13 03:26:01;;;;;;;7.03;2.33;;;;;;;;;;5091257;28;20198;-51
2023/01/13 03:28:29;;;;;;;6.20;2.00;;;;;;;;;;5091114;28;20653;-51
2023/01/13 03:30:58;;;;;;;7.30;2.27;;;;;;;;;;5090974;28;20828;-52
2023/01/13 03:33:26;;;;;;;5.53;1.90;;;;;;;;;;5090902;28;20214;-51
2023/01/13 03:35:55;;;;;;;6.53;2.23;;;;;;;;;;5090913;28;20238;-52
2023/01/13 03:38:23;;;;;;;5.60;2.53;;;;;;;;;;5090696;28;20765;-51
2023/01/13 03:40:51;;;;;;;5.90;2.70;;;;;;;;;;5091099;28;20551;-53
2023/01/13 03:46:06;;;;;;;8.90;2.87;;;;;;;;;;5090881;28;20193;-51
2023/01/13 03:48:35;;;;;;;7.20;2.80;;;;;;;;;;5090919;28;20230;-53
2023/01/13 03:51:05;;;;;;;8.43;3.10;;;;;;;;;;5090590;28;20209;-51
2023/01/13 03:53:33;;;;;;;10.03;2.83;;;;;;;;;;5090493;28;20449;-52
2023/01/13 03:56:03;;;;;;;9.93;3.07;;;;;;;;;;5091006;28;20285;-52
2023/01/13 03:58:30;;;;;;;11.80;2.60;;;;;;;;;;5090506;28;20218;-52
2023/01/13 04:00:57;;;;;;;11.30;2.70;;;;;;;;;;5090497;28;20203;-52
2023/01/13 04:03:25;;;;;;;9.90;2.53;;;;;;;;;;5090388;28;20199;-52
2023/01/13 04:05:53;;;;;;;12.23;2.77;;;;;;;;;;5090643;28;20206;-52
2023/01/13 04:08:23;;;;;;;9.07;2.70;;;;;;;;;;5090224;28;20726;-52
2023/01/13 04:10:52;;;;;;;13.40;3.43;;;;;;;;;;5090456;28;20203;-51
2023/01/13 04:13:21;;;;;;;8.63;2.67;;;;;;;;;;5090362;28;20203;-52
2023/01/13 04:15:48;;;;;;;7.53;2.97;;;;;;;;;;5090386;28;20289;-51
2023/01/13 04:18:15;;;;;;;12.73;3.40;;;;;;;;;;5089303;28;20226;-52
2023/01/13 04:20:42;;;;;;;12.27;3.23;;;;;;;;;;5090231;28;20212;-52
2023/01/13 04:23:09;;;;;;;10.60;3.20;;;;;;;;;;5090116;28;20251;-52
2023/01/13 04:25:36;;;;;;;12.07;3.17;;;;;;;;;;5090171;28;20198;-52
2023/01/13 04:28:02;;;;;;;9.37;2.77;;;;;;;;;;5090146;28;20222;-52
2023/01/13 04:30:28;;;;;;;9.47;3.57;;;;;;;;;;5090060;28;20744;-52
2023/01/13 04:32:54;;;;;;;14.20;3.80;;;;;;;;;;5089980;28;20211;-52
2023/01/13 04:35:20;;;;;;;15.63;3.77;;;;;;;;;;5089828;28;20238;-52
2023/01/13 04:37:47;;;;;;;12.27;3.63;;;;;;;;;;5089752;28;20202;-52
2023/01/13 04:40:13;;;;;;;10.80;3.93;;;;;;;;;;5090369;28;20221;-51
2023/01/13 04:42:40;;;;;;;10.40;3.60;;;;;;;;;;5089988;28;20597;-51
2023/01/13 04:45:08;;;;;;;13.70;3.03;;;;;;;;;;5089793;28;20205;-51
2023/01/13 04:47:34;;;;;;;10.03;4.03;;;;;;;;;;5089948;28;20286;-53
2023/01/13 04:50:00;;;;;;;15.80;4.27;;;;;;;;;;5089725;28;20194;-51
2023/01/13 04:52:26;;;;;;;16.43;3.63;;;;;;;;;;5089518;28;20282;-51
2023/01/13 04:54:52;;;;;;;16.43;4.17;;;;;;;;;;5090133;28;20665;-52
2023/01/13 04:57:18;;;;;;;11.90;4.03;;;;;;;;;;5089815;28;20266;-50
2023/01/13 04:59:45;;;;;;;12.53;3.57;;;;;;;;;;5089768;28;20284;-52
2023/01/13 05:02:18;;;;;;;13.27;3.40;;;;;;;;;;5089618;28;20294;-51
2023/01/13 05:04:44;;;;;;;10.70;3.07;;;;;;;;;;5089930;28;20218;-51
2023/01/13 05:07:10;;;;;;;15.40;3.70;;;;;;;;;;5089488;28;20195;-52
2023/01/13 05:09:36;;;;;;;13.80;4.10;;;;;;;;;;5089997;28;20705;-52
2023/01/13 05:17:33;;;;;;;11.37;3.90;;;;;;;;;;5089764;28;20259;-52
2023/01/13 05:19:59;;;;;;;14.03;3.67;;;;;;;;;;5089527;28;20226;-52
2023/01/13 05:25:26;;;;;;;13.00;3.40;;;;;;;;;;5089659;28;20199;-52
2023/01/13 05:27:53;;;;;;;15.70;3.50;;;;;;;;;;5089725;28;20443;-52
2023/01/13 05:30:21;;;;;;;13.03;3.80;;;;;;;;;;5092810;28;20195;-52
2023/01/13 05:32:47;;;;;;;13.80;3.67;;;;;;;;;;5093570;28;20199;-52
2023/01/13 05:35:14;;;;;;;19.60;3.80;;;;;;;;;;5093079;28;20321;-53
2023/01/13 05:37:40;;;;;;;11.93;3.97;;;;;;;;;;5093357;28;20202;-52
2023/01/13 05:43:18;;;;;;;16.13;4.03;;;;;;;;;;5093146;28;20587;-51
2023/01/13 05:45:46;;;;;;;12.63;3.93;;;;;;;;;;5093179;28;20659;-52
2023/01/13 05:48:12;;;;;;;15.30;4.37;;;;;;;;;;5093056;28;20203;-51
2023/01/13 05:50:38;;;;;;;12.63;3.23;;;;;;;;;;5093072;28;20197;-51
2023/01/13 05:53:04;;;;;;;14.83;3.00;;;;;;;;;;5092827;28;20206;-51
2023/01/13 05:55:30;;;;;;;10.17;3.33;;;;;;;;;;5092937;28;20183;-52
2023/01/13 05:57:56;;;;;;;11.17;3.03;;;;;;;;;;5092810;28;20260;-52
2023/01/13 06:00:23;;;;;;;11.87;3.40;;;;;;;;;;5092917;28;20226;-49
2023/01/13 06:02:50;;;;;;;13.90;5.30;;;;;;;;;;5092762;28;20260;-53
2023/01/13 06:05:16;;;;;;;15.63;4.53;;;;;;;;;;5092701;28;20207;-51
2023/01/13 06:07:42;;;;;;;11.37;4.57;;;;;;;;;;5092510;28;20683;-51
2023/01/13 06:10:09;;;;;;;9.90;3.10;;;;;;;;;;5092504;28;20198;-50
2023/01/13 06:12:35;;;;;;;15.93;4.13;;;;;;;;;;5092708;28;20230;-50
2023/01/13 06:15:01;;;;;;;18.67;4.40;;;;;;;;;;5092452;28;20249;-50
2023/01/13 06:17:28;;;;;;;11.07;3.27;;;;;;;;;;5092232;28;20199;-50
2023/01/13 06:19:55;;;;;;;17.30;3.80;;;;;;;;;;5091972;28;20700;-50
2023/01/13 06:22:22;;;;;;;15.70;3.70;;;;;;;;;;5092049;28;20199;-50
2023/01/13 06:24:49;;;;;;;13.23;3.47;;;;;;;;;;5092400;28;20219;-50
2023/01/13 06:27:15;;;;;;;17.03;3.93;;;;;;;;;;5092528;28;20612;-51
2023/01/13 06:29:41;;;;;;;14.13;3.70;;;;;;;;;;5092318;28;20234;-50
2023/01/13 06:32:11;;;;;;;17.70;4.03;;;;;;;;;;5092278;28;20286;-50
2023/01/13 06:34:38;;;;;;;15.17;3.93;;;;;;;;;;5092358;28;20230;-50
2023/01/13 06:37:05;;;;;;;11.37;3.67;;;;;;;;;;5091840;28;20245;-51
2023/01/13 06:39:32;;;;;;;14.73;3.77;;;;;;;;;;5091773;28;20245;-51
2023/01/13 06:44:43;;;;;;;17.33;4.60;;;;;;;;;;5091912;28;20190;-51
2023/01/13 06:47:09;;;;;;;17.10;3.80;;;;;;;;;;5092003;28;20202;-51
2023/01/13 06:49:35;;;;;;;18.07;4.20;;;;;;;;;;5091664;28;20650;-51
2023/01/13 06:52:01;;;;;;;18.33;4.17;;;;;;;;;;5091479;28;20195;-52
2023/01/13 06:54:28;;;;;;;11.73;3.40;;;;;;;;;;5091762;28;20202;-50
2023/01/13 06:56:54;;;;;;;13.90;3.27;;;;;;;;;;5091770;28;20206;-50
2023/01/13 06:59:21;;;;;;;14.33;3.60;;;;;;;;;;5091310;28;20215;-51
2023/01/13 07:01:47;;;;;;;10.83;3.80;;;;;;;;;;5091858;28;20197;-51
2023/01/13 07:04:13;;;;;;;16.53;3.73;;;;;;;;;;5091324;28;20199;-51
2023/01/13 07:06:39;;;;;;;13.43;3.40;;;;;;;;;;5091410;28;20209;-51
2023/01/13 07:09:05;;;;;;;12.53;4.10;;;;;;;;;;5091516;28;20191;-51
2023/01/13 07:11:32;;;;;;;11.23;3.67;;;;;;;;;;5091486;28;20203;-51
2023/01/13 07:16:45;;;;;;;9.97;3.03;;;;;;;;;;5091182;28;20320;-51
2023/01/13 07:19:11;;;;;;;14.27;3.40;;;;;;;;;;5091330;28;20280;-51
2023/01/13 07:21:37;;;;;;;13.03;3.17;;;;;;;;;;5091241;28;20202;-51
2023/01/13 07:24:03;;;;;;;10.73;3.27;;;;;;;;;;5091180;28;20470;-51
2023/01/13 07:26:29;;;;;;;13.90;3.67;;;;;;;;;;5091233;28;20202;-51
2023/01/13 07:28:57;;;;;;;15.37;3.47;;;;;;;;;;5090937;28;20563;-51
2023/01/13 07:31:24;;;;;;;13.37;3.47;;;;;;;;;;5090945;28;20665;-52
2023/01/13 07:33:50;;;;;;;12.90;3.10;;;;;;;;;;5091220;28;20228;-52
2023/01/13 07:36:16;;;;;;;12.63;3.20;;;;;;;;;;5090779;28;20657;-51
2023/01/13 07:38:43;;;;;;;10.83;4.00;;;;;;;;;;5091075;28;20306;-51
2023/01/13 07:43:59;;;;;;;12.27;4.37;;;;;;;;;;5090850;28;20276;-51
2023/01/13 07:46:37;;;;;;;10.67;3.47;;;;;;;;;;5090373;28;20199;-52
2023/01/13 07:49:04;;;;;;;14.13;3.37;;;;;;;;;;5088825;28;20195;-51
2023/01/13 07:51:30;;;;;;;12.33;3.27;;;;;;;;;;5090477;28;20205;-51
2023/01/13 07:53:56;;;;;;;12.50;3.03;;;;;;;;;;5089836;28;20191;-48
2023/01/13 07:56:22;;;;;;;11.10;2.47;;;;;;;;;;5090451;28;20224;-48
2023/01/13 07:58:49;;;;;;;10.33;2.93;;;;;;;;;;5090711;28;20239;-48
2023/01/13 08:01:17;;;;;;;9.57;2.97;;;;;;;;;;5090471;28;20619;-49
2023/01/13 08:03:43;;;;;;;7.47;3.17;;;;;;;;;;5090291;28;20618;-48
2023/01/13 08:06:10;;;;;;;10.30;3.00;;;;;;;;;;5090435;28;20252;-49
2023/01/13 08:08:37;;;;;;;8.90;2.87;;;;;;;;;;5090331;28;20195;-48
2023/01/13 08:11:04;;;;;;;9.03;3.30;;;;;;;;;;5090432;28;20214;-48
2023/01/13 08:13:30;;;;;;;7.77;2.33;;;;;;;;;;5090247;28;20205;-48
2023/01/13 08:15:59;;;;;;;10.43;3.23;;;;;;;;;;5090225;28;20190;-48
2023/01/13 08:18:27;;;;;;;9.90;3.00;;;;;;;;;;5089843;28;20230;-48
2023/01/13 08:20:53;;;;;;;11.60;2.60;;;;;;;;;;5090112;28;20226;-48
2023/01/13 08:23:19;;;;;;;9.93;3.27;;;;;;;;;;5090135;28;20199;-48
2023/01/13 08:25:45;;;;;;;6.83;2.73;;;;;;;;;;5090125;28;20565;-48
2023/01/13 08:28:12;;;;;;;9.57;2.90;;;;;;;;;;5090179;28;20230;-48
2023/01/13 08:30:38;;;;;;;7.07;2.50;;;;;;;;;;5090052;28;20774;-48
2023/01/13 08:33:06;;;;;;;10.93;2.80;;;;;;;;;;5090249;28;20203;-48
2023/01/13 08:35:33;;;;;;;7.73;2.73;;;;;;;;;;5089643;28;20234;-48
2023/01/13 08:37:59;;;;;;;10.20;2.90;;;;;;;;;;5089800;28;20203;-48
2023/01/13 08:40:25;;;;;;;5.53;2.30;;;;;;;;;;5089969;28;20754;-48
2023/01/13 08:42:52;;;;;;;11.23;2.67;;;;;;;;;;5089990;28;20248;-48
2023/01/13 08:45:18;;;;;;;10.97;2.93;;;;;;;;;;5089881;28;20209;-48
2023/01/13 08:47:44;;;;;;;8.07;2.70;;;;;;;;;;5089732;28;20607;-48
2023/01/13 08:50:11;;;;;;;8.10;2.47;;;;;;;;;;5089703;28;20232;-46
2023/01/13 08:52:38;;;;;;;6.33;2.30;;;;;;;;;;5089898;28;20221;-47
2023/01/13 08:55:05;;;;;;;9.17;2.33;;;;;;;;;;5089924;28;20203;-46
2023/01/13 08:57:31;;;;;;;8.60;2.47;;;;;;;;;;5089727;28;20596;-46
2023/01/13 08:59:57;;;;;;;8.33;2.47;;;;;;;;;;5089722;28;20256;-47
2023/01/13 09:02:23;;;;;;;7.27;2.43;;;;;;;;;;5089602;28;20248;-48
2023/01/13 09:04:50;;;;;;;6.87;2.40;;;;;;;;;;5092557;28;20190;-48
2023/01/13 09:07:16;;;;;;;8.53;2.40;;;;;;;;;;5093650;28;20195;-46
2023/01/13 09:09:43;;;;;;;8.23;2.30;;;;;;;;;;5093976;28;20279;-46
2023/01/13 09:14:55;;;;;;;11.97;3.00;;;;;;;;;;5093728;28;20198;-48
2023/01/13 09:17:22;;;;;;;12.30;2.70;;;;;;;;;;5093487;28;20202;-48
2023/01/13 09:19:48;;;;;;;7.80;2.77;;;;;;;;;;5093731;28;20309;-48
2023/01/13 09:22:15;;;;;;;8.77;2.70;;;;;;;;;;5093345;28;20290;-48
2023/01/13 09:24:41;;;;;;;7.37;2.87;;;;;;;;;;5093651;28;20203;-48
2023/01/13 09:27:09;;;;;;;7.13;2.70;;;;;;;;;;5093287;28;20194;-48
2023/01/13 09:29:35;;;;;;;9.30;2.97;;;;;;;;;;5093085;28;20420;-48
2023/01/13 09:32:01;;;;;;;8.93;2.70;;;;;;;;;;5093595;28;20278;-48
2023/01/13 09:37:11;;;;;;;5.60;2.27;;;;;;;;;;5093489;28;20279;-48
2023/01/13 09:39:38;;;;;;;9.20;2.53;;;;;;;;;;5093160;28;20692;-48
2023/01/13 09:45:00;;;;;;;8.77;2.27;;;;;;;;;;5092995;28;20272;-48
2023/01/13 09:47:29;;;;;;;6.63;2.40;;;;;;;;;;5092839;28;20243;-48
2023/01/13 09:49:59;;;;;;;9.27;2.43;;;;;;;;;;5093308;28;20214;-48
2023/01/13 09:52:26;;;;;;;9.67;2.50;;;;;;;;;;5092915;28;20203;-48
2023/01/13 09:54:55;;;;;;;9.00;2.40;;;;;;;;;;5092877;28;20609;-48
2023/01/13 09:57:21;;;;;;;8.20;2.73;;;;;;;;;;5092790;28;20215;-49
2023/01/13 09:59:47;;;;;;;10.43;2.63;;;;;;;;;;5093075;28;20238;-48
2023/01/13 10:02:23;;;;;;;9.73;3.00;;;;;;;;;;5092597;28;20286;-48
2023/01/13 10:05:02;;;;;;;9.60;2.77;;;;;;;;;;5086859;28;20202;-48
2023/01/13 10:07:29;;;;;;;7.30;2.73;;;;;;;;;;5072118;28;20542;-49
2023/01/13 10:09:57;;;;;;;10.70;3.87;;;;;;;;;;5072752;28;20200;-49
2023/01/13 10:15:13;;;;;;;10.60;2.90;;;;;;;;;;5071482;28;20198;-49
2023/01/13 10:17:44;;;;;;;12.90;2.90;;;;;;;;;;5071805;28;20215;-49
2023/01/13 10:20:16;;;;;;;7.10;2.30;;;;;;;;;;5069286;28;20570;-48
2023/01/13 10:22:46;;;;;;;11.17;2.70;;;;;;;;;;5071795;28;20241;-49
2023/01/13 10:25:19;;;;;;;12.67;3.33;;;;;;;;;;5071794;28;20606;-49
2023/01/13 10:27:48;;;;;;;10.57;2.73;;;;;;;;;;5072265;28;20195;-48
2023/01/13 10:30:18;;;;;;;15.00;3.20;;;;;;;;;;5071805;28;20278;-48
2023/01/13 10:32:50;;;;;;;11.03;4.33;;;;;;;;;;5071744;28;20200;-48
2023/01/13 10:35:16;;;;;;;10.20;3.30;;;;;;;;;;5071620;28;20251;-48
2023/01/13 10:37:54;;;;;;;13.57;4.70;;;;;;;;;;5071610;28;20200;-48
2023/01/13 10:40:20;;;;;;;9.47;2.87;;;;;;;;;;5071676;28;20227;-48
2023/01/13 10:42:46;;;;;;;9.07;2.97;;;;;;;;;;5071808;28;20199;-51
2023/01/13 10:45:23;;;;;;;13.67;4.53;;;;;;;;;;5071388;28;20642;-51
2023/01/13 10:48:02;;;;;;;9.20;3.63;;;;;;;;;;5071519;28;20309;-48
2023/01/13 10:50:28;;;;;;;11.40;4.13;;;;;;;;;;5071529;28;20192;-49
2023/01/13 10:52:56;;;;;;;8.63;2.67;;;;;;;;;;5071290;28;20203;-51
2023/01/13 10:55:24;;;;;;;11.43;2.93;;;;;;;;;;5071424;28;20211;-50
2023/01/13 10:57:50;;;;;;;9.53;2.60;;;;;;;;;;5071517;28;20200;-50
2023/01/13 11:00:26;;;;;;;10.00;3.00;;;;;;;;;;5071065;28;20584;-50
2023/01/13 11:03:09;;;;;;;9.00;2.10;;;;;;;;;;5071404;28;20191;-51
2023/01/13 11:05:36;;;;;;;14.77;2.90;;;;;;;;;;5069702;28;20631;-51
2023/01/13 11:08:02;;;;;;;12.93;3.37;;;;;;;;;;5071378;28;20665;-50
2023/01/13 11:10:31;;;;;;;8.70;2.60;;;;;;;;;;5071318;28;20249;-50
2023/01/13 11:12:58;;;;;;;11.67;2.73;;;;;;;;;;5070998;28;20690;-50
2023/01/13 11:15:37;;;;;;;14.80;4.47;;;;;;;;;;5071141;28;20751;-51
2023/01/13 11:18:09;;;;;;;11.73;3.10;;;;;;;;;;5070885;28;20207;-51
2023/01/13 11:20:36;;;;;;;7.50;2.30;;;;;;;;;;5070730;28;20652;-50
2023/01/13 11:23:06;;;;;;;10.43;2.50;;;;;;;;;;5071238;28;20196;-50
2023/01/13 11:25:43;;;;;;;8.27;2.80;;;;;;;;;;5070898;28;20195;-51
2023/01/13 11:28:32;;;;;;;8.13;2.63;;;;;;;;;;5070774;28;20226;-49
2023/01/13 11:31:02;;;;;;;12.20;4.43;;;;;;;;;;5070999;28;20202;-49
2023/01/13 11:33:35;;;;;;;13.67;6.67;;;;;;;;;;5070607;28;20196;-49
2023/01/13 11:36:08;;;;;;;14.13;3.23;;;;;;;;;;5070608;28;20243;-49
2023/01/13 11:38:37;;;;;;;11.87;3.40;;;;;;;;;;5070556;28;20217;-49
2023/01/13 11:41:07;;;;;;;12.73;3.80;;;;;;;;;;5070573;28;20191;-49
2023/01/13 11:43:36;;;;;;;11.50;3.13;;;;;;;;;;5070273;28;20277;-51
2023/01/13 11:46:02;;;;;;;6.10;2.50;;;;;;;;;;5070570;28;20635;-49
2023/01/13 11:48:29;;;;;;;11.40;3.23;;;;;;;;;;5070350;28;20198;-50
2023/01/13 11:51:00;;;;;;;9.40;3.00;;;;;;;;;;5070173;28;20561;-51
2023/01/13 11:53:43;;;;;;;8.80;2.97;;;;;;;;;;5070390;28;20215;-50
2023/01/13 11:56:23;;;;;;;17.90;3.63;;;;;;;;;;5070421;28;20195;-50
2023/01/13 11:59:01;;;;;;;11.90;2.87;;;;;;;;;;5070390;28;20593;-49
2023/01/13 12:01:39;;;;;;;12.80;2.97;;;;;;;;;;5070063;28;20199;-49
2023/01/13 12:04:15;;;;;;;10.23;2.80;;;;;;;;;;5070160;28;20268;-50
2023/01/13 12:06:44;;;;;;;8.93;2.90;;;;;;;;;;5070186;28;20207;-50
2023/01/13 12:09:18;;;;;;;7.77;2.50;;;;;;;;;;5070285;28;20207;-50
2023/01/13 12:14:39;;;;;;;10.07;3.40;;;;;;;;;;5070065;28;20595;-50
2023/01/13 12:17:09;;;;;;;5.83;2.43;;;;;;;;;;5070063;28;20204;-50
2023/01/13 12:19:35;;;;;;;12.37;3.20;;;;;;;;;;5069818;28;20768;-51
2023/01/13 12:22:07;;;;;;;11.77;2.80;;;;;;;;;;5070330;28;20338;-49
2023/01/13 12:24:37;;;;;;;10.10;2.63;;;;;;;;;;5070077;28;20225;-48
2023/01/13 12:27:05;;;;;;;8.77;2.40;;;;;;;;;;5070037;28;20279;-49
2023/01/13 12:29:32;;;;;;;7.50;2.50;;;;;;;;;;5069648;28;20581;-49
2023/01/13 12:31:59;;;;;;;5.73;2.20;;;;;;;;;;5070134;28;20195;-50
2023/01/13 12:34:30;;;;;;;7.67;2.47;;;;;;;;;;5069734;28;20257;-50
2023/01/13 12:37:00;;;;;;;5.50;2.17;;;;;;;;;;5069606;28;20238;-49
2023/01/13 12:39:32;;;;;;;7.30;2.93;;;;;;;;;;5068946;28;20224;-49
2023/01/13 12:45:04;;;;;;;10.53;2.97;;;;;;;;;;5069732;28;20187;-49
2023/01/13 12:47:33;;;;;;;9.63;2.67;;;;;;;;;;5069950;28;20207;-49
2023/01/13 12:50:30;;;;;;;11.37;2.70;;;;;;;;;;5069713;28;20184;-51
2023/01/13 12:52:57;;;;;;;6.07;2.27;;;;;;;;;;5069493;28;20188;-49
2023/01/13 12:55:25;;;;;;;9.20;2.30;;;;;;;;;;5069919;28;20244;-49
2023/01/13 12:57:56;;;;;;;10.07;2.63;;;;;;;;;;5069659;28;20282;-49
2023/01/13 13:00:22;;;;;;;8.80;2.77;;;;;;;;;;5069380;28;20310;-50
2023/01/13 13:03:02;;;;;;;6.43;2.10;;;;;;;;;;5069863;28;20253;-49
2023/01/13 13:05:36;;;;;;;9.57;2.83;;;;;;;;;;5068944;28;20234;-50
2023/01/13 13:08:04;;;;;;;7.17;2.73;;;;;;;;;;5069373;28;20673;-50
2023/01/13 13:10:34;;;;;;;7.77;2.70;;;;;;;;;;5069373;28;20195;-50
2023/01/13 13:13:16;;;;;;;7.50;2.50;;;;;;;;;;5070014;28;20536;-50
2023/01/13 13:15:43;;;;;;;9.63;2.57;;;;;;;;;;5067461;28;20199;-50
2023/01/13 13:18:23;;;;;;;9.53;2.47;;;;;;;;;;5069255;28;20278;-50
2023/01/13 13:20:54;;;;;;;8.70;2.83;;;;;;;;;;5069061;28;20231;-50
2023/01/13 13:23:47;;;;;;;7.67;2.40;;;;;;;;;;5069154;28;20206;-50
2023/01/13 13:26:20;;;;;;;6.17;2.40;;;;;;;;;;5054896;28;20203;-51
2023/01/13 13:28:52;;;;;;;9.17;2.93;;;;;;;;;;5069011;28;20604;-48
2023/01/13 13:31:24;;;;;;;10.33;3.00;;;;;;;;;;5068887;28;20203;-49
2023/01/13 13:33:56;;;;;;;10.13;3.00;;;;;;;;;;5068792;28;20278;-49
2023/01/13 13:36:36;;;;;;;7.97;2.60;;;;;;;;;;5068754;28;20882;-48
2023/01/13 13:47:34;;;;;;;13.47;2.50;;;;;;;;;;5068934;28;20256;-49
2023/01/13 13:50:04;;;;;;;5.73;2.27;;;;;;;;;;5069760;28;20227;-49
2023/01/13 13:52:35;;;;;;;5.00;2.50;;;;;;;;;;5072186;28;20202;-49
2023/01/13 13:55:06;;;;;;;7.23;2.73;;;;;;;;;;5072566;28;20206;-49
2023/01/13 13:57:34;;;;;;;7.50;2.20;;;;;;;;;;5072297;28;20536;-49
2023/01/13 14:00:00;;;;;;;5.37;2.40;;;;;;;;;;5072641;28;20289;-49
2023/01/13 14:02:28;;;;;;;6.47;2.13;;;;;;;;;;5072740;28;20237;-49
2023/01/13 14:05:06;;;;;;;8.53;2.93;;;;;;;;;;5072685;28;20204;-49
2023/01/13 14:07:40;;;;;;;9.73;3.07;;;;;;;;;;5072179;28;20697;-50
2023/01/13 14:10:11;;;;;;;6.77;2.93;;;;;;;;;;5072345;28;20222;-49
2023/01/13 14:12:39;;;;;;;8.40;2.50;;;;;;;;;;5072072;28;20222;-49
2023/01/13 14:15:05;;;;;;;4.77;2.13;;;;;;;;;;5072337;28;20202;-49
2023/01/13 14:17:32;;;;;;;7.50;2.73;;;;;;;;;;5072178;28;20649;-51
2023/01/13 14:20:00;;;;;;;10.07;2.43;;;;;;;;;;5072151;28;20645;-49
2023/01/13 14:22:26;;;;;;;5.87;2.20;;;;;;;;;;5072131;28;20290;-50
2023/01/13 14:24:56;;;;;;;7.83;2.67;;;;;;;;;;5072183;28;20207;-50
2023/01/13 14:27:25;;;;;;;7.63;2.20;;;;;;;;;;5072023;28;20199;-49
2023/01/13 14:29:53;;;;;;;9.73;3.20;;;;;;;;;;5072153;28;20196;-49
2023/01/13 14:32:20;;;;;;;8.50;2.80;;;;;;;;;;5072211;28;20219;-49
2023/01/13 14:34:46;;;;;;;5.47;2.40;;;;;;;;;;5071747;28;20195;-49
2023/01/13 14:37:22;;;;;;;10.27;2.47;;;;;;;;;;5071774;28;20196;-49
2023/01/13 14:39:48;;;;;;;9.73;3.00;;;;;;;;;;5072129;28;20234;-49
2023/01/13 14:42:15;;;;;;;9.17;2.60;;;;;;;;;;5072134;28;20199;-49
2023/01/13 14:44:44;;;;;;;7.00;2.47;;;;;;;;;;5071489;28;20207;-49
2023/01/13 14:47:24;;;;;;;7.40;2.97;;;;;;;;;;5071603;28;20212;-51
2023/01/13 14:49:57;;;;;;;8.83;2.90;;;;;;;;;;5071695;28;20646;-49
2023/01/13 14:52:24;;;;;;;8.00;2.60;;;;;;;;;;5071616;28;20215;-50
2023/01/13 14:54:51;;;;;;;9.40;2.53;;;;;;;;;;5071659;28;20824;-49
2023/01/13 14:57:26;;;;;;;6.97;2.20;;;;;;;;;;5071416;28;20215;-49
2023/01/13 15:00:02;;;;;;;7.67;2.30;;;;;;;;;;5071627;28;20227;-50
2023/01/13 15:02:46;;;;;;;7.33;2.60;;;;;;;;;;5070792;28;20226;-50
2023/01/13 15:05:31;;;;;;;7.07;2.00;;;;;;;;;;5071235;28;20191;-51
2023/01/13 15:07:59;;;;;;;8.73;2.47;;;;;;;;;;5071267;28;20191;-50
2023/01/13 15:10:27;;;;;;;8.27;2.60;;;;;;;;;;5071419;28;20203;-50
2023/01/13 15:12:54;;;;;;;8.90;2.77;;;;;;;;;;5071392;28;20215;-50
2023/01/13 15:15:22;;;;;;;6.00;2.43;;;;;;;;;;5071329;28;20203;-50
2023/01/13 15:17:48;;;;;;;7.33;2.07;;;;;;;;;;5071086;28;20668;-50
2023/01/13 15:20:14;;;;;;;7.80;2.30;;;;;;;;;;5071118;28;20223;-50
2023/01/13 15:22:40;;;;;;;9.13;2.80;;;;;;;;;;5070845;28;20200;-50
2023/01/13 15:25:09;;;;;;;9.93;2.77;;;;;;;;;;5071001;28;20264;-51
2023/01/13 15:27:36;;;;;;;5.80;2.17;;;;;;;;;;5071006;28;20290;-51
2023/01/13 15:30:02;;;;;;;8.13;2.77;;;;;;;;;;5071067;28;20196;-50
2023/01/13 15:32:31;;;;;;;7.33;2.47;;;;;;;;;;5070914;28;20199;-51
2023/01/13 15:34:57;;;;;;;9.67;2.47;;;;;;;;;;5070806;28;20198;-50
2023/01/13 15:37:24;;;;;;;9.00;2.60;;;;;;;;;;5070757;28;20188;-50
2023/01/13 15:39:50;;;;;;;8.33;2.70;;;;;;;;;;5070481;28;20235;-50
2023/01/13 15:47:47;;;;;;;7.90;2.80;;;;;;;;;;5070533;28;20217;-50
2023/01/13 15:50:14;;;;;;;5.90;2.37;;;;;;;;;;5070853;28;20206;-50